createdAt,value
2019-05-10T12:28:35.858Z,99669.49
2019-05-10T12:31:07.523Z,99669.49
2019-05-10T12:33:37.006Z,100673.94
2019-05-10T12:36:13.476Z,100672.77
2019-05-10T12:38:38.579Z,100681.52
2019-05-10T12:41:08.049Z,100677.11
2019-05-10T12:43:37.100Z,100683.47
2019-05-10T12:46:06.362Z,100689.34
2019-05-10T12:48:36.060Z,100705.87
2019-05-10T12:51:11.456Z,100704.75
2019-05-10T12:53:36.732Z,100714.55
2019-05-10T12:56:07.600Z,100717.12
2019-05-10T12:58:37.106Z,100720.58
2019-05-10T13:01:06.292Z,100723.92
2019-05-10T13:03:35.835Z,100731.31
2019-05-10T13:06:04.868Z,100738.39
2019-05-10T13:08:34.148Z,100735.61
2019-05-10T13:11:03.667Z,100741.66
2019-05-10T13:13:32.716Z,100744.60
2019-05-10T13:16:03.563Z,100742.03
2019-05-10T13:18:50.664Z,100745.66
2019-05-10T13:21:07.589Z,100749.83
2019-05-10T13:23:35.640Z,100748.25
2019-05-10T13:26:04.650Z,100751.48
2019-05-10T13:28:33.717Z,100761.92
2019-05-10T13:31:05.712Z,100756.70
2019-05-10T13:33:40.679Z,100770.58
2019-05-10T13:36:07.233Z,100775.86
2019-05-10T13:38:43.161Z,100775.46
2019-05-10T13:41:11.464Z,100783.75
2019-05-10T13:43:40.712Z,100783.45
2019-05-10T13:46:09.957Z,100776.16
2019-05-10T13:48:38.900Z,100787.89
2019-05-10T13:51:08.125Z,100801.09
2019-05-10T13:53:37.385Z,100798.59
2019-05-10T13:56:06.553Z,100786.39
2019-05-10T13:58:35.549Z,100797.97
2019-05-10T14:01:06.523Z,100800.58
2019-05-10T14:03:43.673Z,100792.95
2019-05-10T14:06:08.354Z,100799.47
2019-05-10T14:08:43.054Z,100812.34
2019-05-10T14:11:08.638Z,100812.94
2019-05-10T14:13:41.505Z,100813.14
2019-05-10T14:16:18.065Z,100812.98
2019-05-10T14:18:39.902Z,100826.45
2019-05-10T14:21:09.283Z,100818.97
2019-05-10T14:23:38.268Z,100836.47
2019-05-10T14:26:18.438Z,100831.31
2019-05-10T14:28:52.951Z,100848.81
2019-05-10T14:31:18.654Z,100848.88
2019-05-10T14:34:14.154Z,100846.56
2019-05-10T14:36:19.135Z,100844.83
2019-05-10T14:38:53.679Z,100847.46
2019-05-10T14:41:19.001Z,100844.44
2019-05-10T14:43:48.352Z,100843.13
2019-05-10T14:46:17.882Z,100847.27
2019-05-10T14:48:46.900Z,100847.42
2019-05-10T14:51:15.922Z,100851.91
2019-05-10T14:53:44.881Z,100851.73
2019-05-10T14:56:15.302Z,100854.09
2019-05-10T14:58:44.686Z,100819.17
2019-05-10T15:01:13.908Z,100862.70
2019-05-10T15:03:47.221Z,100862.61
2019-05-10T15:06:15.847Z,100866.44
2019-05-10T15:08:45.232Z,100869.39
2019-05-10T15:11:14.987Z,100869.92
2019-05-10T15:13:44.302Z,100877.48
2019-05-10T15:16:26.248Z,100870.48
2019-05-10T15:18:46.174Z,100874.49
2019-05-10T15:21:15.311Z,100875.55
2019-05-10T15:23:44.549Z,100880.89
2019-05-10T15:26:13.803Z,100883.97
2019-05-10T15:28:42.865Z,100888.51
2019-05-10T15:31:11.894Z,100892.73
2019-05-10T15:33:41.418Z,100900.16
2019-05-10T15:36:10.784Z,100893.20
2019-05-10T15:38:49.970Z,100905.69
2019-05-10T15:41:11.136Z,100901.56
2019-05-10T15:43:48.843Z,100913.25
2019-05-10T15:46:16.948Z,100902.56
2019-05-10T15:48:46.327Z,100903.95
2019-05-10T15:51:16.866Z,100901.75
2019-05-10T15:53:48.678Z,100903.15
2019-05-10T15:56:21.811Z,100906.23
2019-05-10T15:58:51.111Z,100910.77
2019-05-10T20:00:42.780Z,100915.91
2019-05-10T20:03:12.111Z,100915.91
2019-05-10T20:05:44.292Z,101081.48
2019-05-10T20:08:20.955Z,101081.59
2019-05-10T20:10:50.448Z,101089.72
2019-05-10T20:13:19.965Z,101097.73
2019-05-10T20:15:49.531Z,101092.56
2019-05-10T20:18:19.208Z,101095.34
2019-05-10T20:20:48.737Z,101095.42
2019-05-10T20:23:18.079Z,101099.00
2019-05-10T20:25:47.457Z,101093.33
2019-05-10T20:28:17.101Z,101095.13
2019-05-10T20:30:47.651Z,101098.75
2019-05-10T20:33:20.931Z,101103.25
2019-05-10T20:35:50.531Z,101107.30
2019-05-10T20:38:20.201Z,101101.22
2019-05-10T20:40:49.748Z,101111.86
2019-05-10T20:43:19.147Z,101116.81
2019-05-10T20:46:18.006Z,101121.33
2019-05-10T20:48:38.148Z,100993.97
2019-05-10T20:51:07.838Z,101132.13
2019-05-10T20:53:37.145Z,101130.01
2019-05-10T20:56:09.970Z,101127.00
2019-05-10T20:58:44.308Z,101130.58
2019-05-10T21:01:17.690Z,101127.11
2019-05-10T21:03:47.205Z,101127.64
2019-05-10T21:06:16.440Z,101124.61
2019-05-10T21:08:47.621Z,101129.97
2019-05-10T21:12:20.771Z,101126.92
2019-05-10T21:14:52.382Z,101126.92
2019-05-10T21:17:21.709Z,101132.52
2019-05-10T21:19:50.963Z,101138.76
2019-05-10T21:22:20.215Z,101135.25
2019-05-10T21:24:52.680Z,101137.04
2019-05-10T21:28:26.148Z,101142.83
2019-05-10T21:30:55.388Z,101148.14
2019-05-10T21:33:24.619Z,101146.94
2019-05-10T21:35:54.137Z,101143.41
2019-05-10T21:38:32.860Z,101142.20
2019-05-10T21:40:56.173Z,101146.34
2019-05-10T21:43:25.435Z,101154.88
2019-05-10T21:45:54.508Z,101150.12
2019-05-10T21:48:24.771Z,101156.77
2019-05-10T21:50:54.113Z,101163.83
2019-05-10T21:53:23.423Z,101162.56
2019-05-10T21:55:52.868Z,101162.13
2019-05-10T21:58:22.850Z,101163.83
2019-05-10T22:00:53.517Z,101158.53
2019-05-10T22:03:22.567Z,101161.63
2019-05-10T22:05:51.654Z,101164.33
2019-05-10T22:08:20.661Z,101165.30
2019-05-10T22:10:49.984Z,101162.76
2019-05-10T22:13:19.173Z,101164.59
2019-05-10T22:15:48.513Z,101175.66
2019-05-10T22:18:17.708Z,101178.30
2019-05-10T22:20:48.062Z,101180.02
2019-05-10T22:23:17.370Z,101187.55
2019-05-10T22:25:46.637Z,101194.22
2019-05-10T22:28:15.749Z,101192.03
2019-05-10T22:30:45.056Z,101195.55
2019-05-10T22:33:14.105Z,101189.39
2019-05-10T22:35:43.380Z,101188.95
2019-05-10T22:38:12.644Z,101184.17
2019-05-10T22:40:41.870Z,101180.70
2019-05-10T22:43:11.081Z,101178.97
2019-05-10T22:45:40.449Z,101182.99
2019-05-10T22:48:09.626Z,101182.19
2019-05-10T22:50:41.830Z,101178.32
2019-05-10T22:53:14.249Z,101173.94
2019-05-10T22:55:44.211Z,101165.13
2019-05-10T22:58:14.511Z,101162.55
2019-05-10T23:00:45.709Z,101170.52
2019-05-10T23:03:17.088Z,101161.67
2019-05-10T23:05:46.893Z,101166.95
2019-05-10T23:08:16.045Z,101170.96
2019-05-10T23:10:45.002Z,101167.06
2019-05-10T23:13:14.064Z,101164.04
2019-05-10T23:15:43.332Z,101173.33
2019-05-10T23:18:12.705Z,101176.41
2019-05-10T23:20:42.506Z,101171.58
2019-05-10T23:23:14.826Z,101176.03
2019-05-10T23:25:44.128Z,101173.83
2019-05-10T23:28:13.794Z,101164.59
2019-05-10T23:30:43.093Z,101176.91
2019-05-10T23:33:12.295Z,101178.72
2019-05-10T23:35:41.448Z,101175.72
2019-05-10T23:38:10.842Z,101185.84
2019-05-10T23:40:40.303Z,101188.52
2019-05-10T23:43:09.547Z,101184.61
2019-05-10T23:45:38.998Z,101184.17
2019-05-10T23:48:08.233Z,101181.13
2019-05-10T23:50:37.204Z,101183.38
2019-05-10T23:53:06.360Z,101188.65
2019-05-10T23:55:35.713Z,101186.89
2019-05-10T23:58:05.330Z,101169.37
